createdAt,value
2023-05-02T00:04:18.687Z,13.13
2023-05-02T00:09:20.962Z,16.55
2023-05-02T00:14:22.529Z,13.02
2023-05-02T00:19:24.193Z,11.68
2023-05-02T00:24:26.902Z,12.13
2023-05-02T00:29:28.456Z,11.32
2023-05-02T00:34:31.263Z,12.00
2023-05-02T00:39:34.712Z,12.55
2023-05-02T00:44:36.406Z,11.57
2023-05-02T00:49:38.051Z,12.45
2023-05-02T00:54:39.688Z,12.43
2023-05-02T00:59:41.301Z,12.52
2023-05-02T01:05:10.558Z,13.43
2023-05-02T01:10:18.910Z,13.02
2023-05-02T01:15:22.667Z,11.98
2023-05-02T01:20:27.914Z,13.70
2023-05-02T01:25:37.886Z,13.43
2023-05-02T01:30:42.807Z,12.90
2023-05-02T01:35:49.596Z,14.77
2023-05-02T01:40:51.869Z,14.77
2023-05-02T01:45:55.430Z,15.93
2023-05-02T01:50:58.754Z,14.35
2023-05-02T01:56:00.755Z,14.75
2023-05-02T02:01:04.387Z,15.25
2023-05-02T02:06:08.418Z,14.80
2023-05-02T02:11:13.246Z,15.30
2023-05-02T02:16:21.633Z,15.38
2023-05-02T02:26:25.648Z,15.73
2023-05-02T02:31:32.212Z,15.57
2023-05-02T02:36:46.985Z,15.93
2023-05-02T02:42:16.467Z,15.43
2023-05-02T02:47:23.907Z,15.27
2023-05-02T02:52:31.165Z,14.77
2023-05-02T02:58:00.449Z,14.27
2023-05-02T03:03:02.184Z,14.13
2023-05-02T03:08:03.988Z,13.57
2023-05-02T03:13:05.708Z,13.82
2023-05-02T03:18:08.256Z,13.73
2023-05-02T03:23:10.471Z,14.65
2023-05-02T03:28:13.087Z,14.02
2023-05-02T03:33:17.417Z,13.80
2023-05-02T03:38:21.792Z,14.30
2023-05-02T03:43:24.864Z,13.65
2023-05-02T03:48:27.862Z,13.50
2023-05-02T03:53:31.602Z,13.93
2023-05-02T03:58:36.182Z,13.18
2023-05-02T04:03:38.695Z,13.13
2023-05-02T04:08:41.379Z,12.65
2023-05-02T04:13:43.016Z,13.25
2023-05-02T04:18:45.275Z,12.27
2023-05-02T04:23:47.846Z,12.00
2023-05-02T04:28:49.870Z,11.73
2023-05-02T04:33:52.120Z,11.90
2023-05-02T04:38:58.005Z,12.50
2023-05-02T04:44:00.449Z,11.82
2023-05-02T04:49:02.144Z,11.68
2023-05-02T04:54:04.966Z,11.52
2023-05-02T04:59:06.709Z,11.50
2023-05-02T05:04:09.549Z,11.73
2023-05-02T05:09:12.444Z,11.98
2023-05-02T05:14:14.326Z,11.77
2023-05-02T05:19:18.822Z,12.85
2023-05-02T05:24:20.582Z,12.35
2023-05-02T05:29:24.660Z,12.80
2023-05-02T05:34:27.112Z,11.85
2023-05-02T05:39:33.080Z,12.52
2023-05-02T05:44:37.108Z,11.70
2023-05-02T05:49:40.299Z,12.55
2023-05-02T05:54:49.242Z,12.18
2023-05-02T05:59:56.832Z,13.68
2023-05-02T06:04:59.324Z,11.95
2023-05-02T06:10:01.504Z,12.25
2023-05-02T06:15:08.331Z,12.30
2023-05-02T06:20:10.679Z,11.68
2023-05-02T06:25:12.356Z,11.40
2023-05-02T06:30:15.087Z,11.52
2023-05-02T06:35:17.074Z,11.95
2023-05-02T06:40:19.427Z,11.48
2023-05-02T06:45:23.343Z,11.10
2023-05-02T06:50:27.705Z,10.93
2023-05-02T06:55:33.125Z,35.05
2023-05-02T07:00:46.279Z,11.73
2023-05-02T07:05:55.271Z,12.02
2023-05-02T07:11:02.150Z,11.82
2023-05-02T07:16:13.307Z,11.05
2023-05-02T07:21:21.444Z,13.70
2023-05-02T07:26:29.652Z,11.45
2023-05-02T07:31:37.989Z,11.93
2023-05-02T07:36:47.097Z,11.32
2023-05-02T07:41:58.566Z,11.50
2023-05-02T07:47:06.168Z,10.45
2023-05-02T07:52:17.607Z,10.32
2023-05-02T07:57:26.060Z,10.30
2023-05-02T08:02:39.657Z,10.00
2023-05-02T08:07:46.743Z,10.65
2023-05-02T08:12:57.006Z,10.30
2023-05-02T08:18:03.872Z,10.73
2023-05-02T08:23:11.212Z,9.50
2023-05-02T08:28:21.272Z,11.43
2023-05-02T08:33:27.918Z,10.85
2023-05-02T08:38:38.347Z,9.00
2023-05-02T08:43:44.836Z,9.82
2023-05-02T08:48:52.549Z,9.88
2023-05-02T08:53:56.202Z,8.60
2023-05-02T08:58:58.284Z,9.05
2023-05-02T09:04:00.227Z,9.50
2023-05-02T09:09:01.906Z,9.93
2023-05-02T09:14:14.410Z,10.38
2023-05-02T09:19:26.061Z,10.25
2023-05-02T09:24:29.052Z,11.07
2023-05-02T09:29:37.722Z,10.88
2023-05-02T09:40:04.136Z,10.50
2023-05-02T09:45:06.811Z,13.02
2023-05-02T09:50:10.492Z,9.90
2023-05-02T09:55:22.703Z,9.02
2023-05-02T10:00:45.070Z,8.05
2023-05-02T10:05:48.297Z,7.95
2023-05-02T10:10:53.879Z,8.20
2023-05-02T10:16:05.308Z,7.50
2023-05-02T10:21:12.201Z,8.13
2023-05-02T10:26:19.228Z,7.05
2023-05-02T10:31:22.467Z,7.63
2023-05-02T10:36:24.117Z,7.68
2023-05-02T10:41:29.641Z,7.05
2023-05-02T10:46:34.235Z,6.95
2023-05-02T10:51:44.775Z,6.22
2023-05-02T10:56:59.755Z,6.85
2023-05-02T11:02:06.807Z,5.85
2023-05-02T11:07:13.759Z,6.72
2023-05-02T11:12:49.365Z,6.80
2023-05-02T11:18:03.054Z,6.82
2023-05-02T11:23:15.514Z,6.85
2023-05-02T11:28:36.708Z,5.97
2023-05-02T11:33:38.405Z,5.90
2023-05-02T11:38:41.331Z,6.20
2023-05-02T11:43:48.558Z,4.80
2023-05-02T11:48:51.665Z,4.10
2023-05-02T11:53:54.021Z,5.18
2023-05-02T11:59:03.519Z,5.22
2023-05-02T12:04:08.256Z,4.50
2023-05-02T12:09:17.194Z,4.45
2023-05-02T12:14:27.261Z,4.75
2023-05-02T12:19:29.089Z,5.10
2023-05-02T12:24:31.230Z,6.85
2023-05-02T12:29:47.294Z,4.22
2023-05-02T12:34:49.217Z,2.80
2023-05-02T12:39:52.704Z,3.70
2023-05-02T12:44:55.262Z,3.30
2023-05-02T12:50:01.489Z,3.05
2023-05-02T12:55:27.451Z,2.40
2023-05-02T13:00:34.696Z,3.58
2023-05-02T13:10:44.898Z,3.67
2023-05-02T13:15:47.592Z,2.85
2023-05-02T13:20:50.064Z,2.28
2023-05-02T13:25:52.080Z,1.90
2023-05-02T13:30:54.391Z,2.20
2023-05-02T13:35:56.791Z,1.95
2023-05-02T13:40:58.449Z,1.63
2023-05-02T13:46:00.413Z,1.73
2023-05-02T13:51:02.188Z,2.63
2023-05-02T13:56:04.915Z,2.17
2023-05-02T14:01:07.505Z,2.15
2023-05-02T14:06:09.877Z,2.10
2023-05-02T14:11:13.866Z,2.08
2023-05-02T14:16:17.391Z,2.10
2023-05-02T14:21:18.990Z,1.60
2023-05-02T14:26:20.646Z,2.40
2023-05-02T14:31:22.347Z,2.78
2023-05-02T14:36:24.077Z,2.13
2023-05-02T14:41:26.824Z,2.53
2023-05-02T14:46:28.683Z,2.20
2023-05-02T14:51:31.968Z,3.17
2023-05-02T14:56:34.829Z,3.03
2023-05-02T15:01:37.615Z,5.00
2023-05-02T15:06:40.514Z,3.40
2023-05-02T15:11:44.001Z,3.30
2023-05-02T15:16:46.956Z,5.95
2023-05-02T15:21:49.977Z,3.38
2023-05-02T15:26:52.083Z,6.13
2023-05-02T15:31:54.640Z,3.78
2023-05-02T15:36:57.968Z,2.63
2023-05-02T15:42:05.162Z,2.60
2023-05-02T15:47:07.161Z,2.25
2023-05-02T15:52:09.225Z,2.25
2023-05-02T15:57:12.725Z,2.17
2023-05-02T16:02:15.778Z,1.98
2023-05-02T16:07:17.646Z,1.70
2023-05-02T16:12:19.253Z,1.60
2023-05-02T16:17:20.991Z,1.92
2023-05-02T16:22:22.706Z,1.65
2023-05-02T16:27:24.857Z,2.05
2023-05-02T16:32:28.038Z,1.85
2023-05-02T16:37:30.366Z,1.73
2023-05-02T16:42:32.281Z,1.90
2023-05-02T16:47:35.690Z,1.70
2023-05-02T16:52:38.104Z,1.98
2023-05-02T16:57:39.905Z,1.77
2023-05-02T17:02:42.079Z,1.60
2023-05-02T17:07:43.827Z,1.77
2023-05-02T17:12:46.611Z,1.77
2023-05-02T17:17:48.179Z,1.92
2023-05-02T17:22:49.836Z,3.30
2023-05-02T17:27:51.503Z,1.83
2023-05-02T17:32:53.215Z,1.95
2023-05-02T17:37:55.348Z,2.13
2023-05-02T17:42:58.812Z,1.85
2023-05-02T17:48:02.177Z,1.67
2023-05-02T17:53:07.123Z,1.98
2023-05-02T17:58:09.004Z,1.98
2023-05-02T18:03:10.641Z,1.58
2023-05-02T18:08:12.330Z,1.52
2023-05-02T18:13:14.919Z,1.08
2023-05-02T18:18:16.753Z,1.20
2023-05-02T18:23:18.373Z,1.30
2023-05-02T18:28:20.097Z,1.50
2023-05-02T18:33:22.103Z,1.50
2023-05-02T18:38:23.807Z,1.48
2023-05-02T18:43:25.497Z,1.70
2023-05-02T18:48:27.247Z,1.50
2023-05-02T18:53:29.295Z,1.38
2023-05-02T18:58:30.940Z,1.38
2023-05-02T19:03:32.831Z,3.20
2023-05-02T19:08:34.732Z,1.17
2023-05-02T19:13:41.387Z,1.85
2023-05-02T19:18:51.452Z,1.30
2023-05-02T19:29:08.485Z,1.67
2023-05-02T19:34:15.149Z,2.47
2023-05-02T19:39:22.825Z,2.40
2023-05-02T19:44:30.542Z,2.97
2023-05-02T19:49:39.535Z,2.53
2023-05-02T19:54:47.613Z,2.80
2023-05-02T19:59:54.964Z,4.65
2023-05-02T20:05:05.994Z,3.13
2023-05-02T20:10:13.250Z,5.90
2023-05-02T20:15:20.008Z,3.95
2023-05-02T20:20:26.048Z,4.20
2023-05-02T20:25:32.128Z,3.83
2023-05-02T20:30:41.624Z,4.35
2023-05-02T20:35:45.646Z,4.63
2023-05-02T20:40:47.320Z,4.05
2023-05-02T20:45:50.750Z,4.55
2023-05-02T20:50:54.771Z,3.90
2023-05-02T20:55:58.098Z,3.85
2023-05-02T21:01:01.265Z,4.20
2023-05-02T21:06:05.633Z,3.60
2023-05-02T21:11:15.889Z,3.45
2023-05-02T21:16:19.504Z,4.20
2023-05-02T21:21:23.339Z,3.92
2023-05-02T21:26:26.268Z,4.00
2023-05-02T21:31:29.708Z,4.03
2023-05-02T21:36:33.654Z,3.97
2023-05-02T21:41:36.325Z,4.85
2023-05-02T21:46:39.337Z,4.40
2023-05-02T21:51:43.351Z,3.88
2023-05-02T21:56:45.766Z,4.05
2023-05-02T22:01:47.513Z,3.50
2023-05-02T22:06:52.018Z,3.30
2023-05-02T22:11:54.269Z,3.67
2023-05-02T22:16:58.837Z,3.33
2023-05-02T22:22:01.735Z,3.55
2023-05-02T22:27:04.094Z,3.10
2023-05-02T22:32:06.481Z,3.72
2023-05-02T22:37:08.424Z,4.18
2023-05-02T22:42:09.948Z,3.65
2023-05-02T22:47:12.372Z,3.83
2023-05-02T22:52:14.507Z,3.55
2023-05-02T22:57:18.508Z,3.78
2023-05-02T23:02:21.421Z,3.70
2023-05-02T23:07:22.987Z,3.78
2023-05-02T23:12:24.678Z,4.38
2023-05-02T23:17:26.284Z,4.25
2023-05-02T23:22:27.830Z,4.65
2023-05-02T23:27:29.402Z,4.72
2023-05-02T23:32:31.019Z,4.15
2023-05-02T23:37:33.923Z,4.20
2023-05-02T23:42:37.874Z,4.32
2023-05-02T23:47:39.429Z,4.25
2023-05-02T23:52:43.013Z,4.13
2023-05-02T23:57:45.410Z,4.30
